sensor_id;sensor_type;location;lat;lon;timestamp;temperature;humidity
34095;DHT22;20372;47.080;15.410;2022-10-16T00:02:17;11.20;99.90
34095;DHT22;20372;47.080;15.410;2022-10-16T00:04:43;11.20;99.90
34095;DHT22;20372;47.080;15.410;2022-10-16T00:07:09;11.20;99.90
34095;DHT22;20372;47.080;15.410;2022-10-16T00:09:34;11.10;99.90
34095;DHT22;20372;47.080;15.410;2022-10-16T00:12:00;11.10;99.90
34095;DHT22;20372;47.080;15.410;2022-10-16T00:14:25;11.30;99.90
34095;DHT22;20372;47.080;15.410;2022-10-16T00:16:51;11.40;99.90
34095;DHT22;20372;47.080;15.410;2022-10-16T00:19:16;11.50;99.90
34095;DHT22;20372;47.080;15.410;2022-10-16T00:21:42;11.50;99.90
34095;DHT22;20372;47.080;15.410;2022-10-16T00:24:08;11.60;99.90
34095;DHT22;20372;47.080;15.410;2022-10-16T00:26:34;11.60;99.90
34095;DHT22;20372;47.080;15.410;2022-10-16T00:29:00;11.60;99.90
34095;DHT22;20372;47.080;15.410;2022-10-16T00:31:26;11.70;99.90
34095;DHT22;20372;47.080;15.410;2022-10-16T00:33:51;11.60;99.90
34095;DHT22;20372;47.080;15.410;2022-10-16T00:36:19;11.60;99.90
34095;DHT22;20372;47.080;15.410;2022-10-16T00:38:45;11.60;99.90
34095;DHT22;20372;47.080;15.410;2022-10-16T00:41:12;11.70;99.90
34095;DHT22;20372;47.080;15.410;2022-10-16T00:43:42;11.70;99.90
34095;DHT22;20372;47.080;15.410;2022-10-16T00:48:36;11.70;99.90
34095;DHT22;20372;47.080;15.410;2022-10-16T00:51:02;11.70;99.90
34095;DHT22;20372;47.080;15.410;2022-10-16T00:53:27;11.60;99.90
34095;DHT22;20372;47.080;15.410;2022-10-16T00:55:53;11.50;99.90
34095;DHT22;20372;47.080;15.410;2022-10-16T00:58:19;11.60;99.90
34095;DHT22;20372;47.080;15.410;2022-10-16T01:00:45;11.60;99.90
34095;DHT22;20372;47.080;15.410;2022-10-16T01:03:23;11.50;99.90
34095;DHT22;20372;47.080;15.410;2022-10-16T01:05:51;11.40;99.90
34095;DHT22;20372;47.080;15.410;2022-10-16T01:08:26;11.20;99.90
34095;DHT22;20372;47.080;15.410;2022-10-16T01:10:57;11.40;99.90
34095;DHT22;20372;47.080;15.410;2022-10-16T01:13:33;11.30;99.90
34095;DHT22;20372;47.080;15.410;2022-10-16T01:16:06;11.30;99.90
34095;DHT22;20372;47.080;15.410;2022-10-16T01:18:39;11.20;99.90
34095;DHT22;20372;47.080;15.410;2022-10-16T01:21:09;11.30;99.90
34095;DHT22;20372;47.080;15.410;2022-10-16T01:23:38;11.30;99.90
34095;DHT22;20372;47.080;15.410;2022-10-16T01:26:13;11.30;99.90
34095;DHT22;20372;47.080;15.410;2022-10-16T01:31:18;11.30;99.90
34095;DHT22;20372;47.080;15.410;2022-10-16T01:33:51;11.20;99.90
34095;DHT22;20372;47.080;15.410;2022-10-16T01:36:21;11.10;99.90
34095;DHT22;20372;47.080;15.410;2022-10-16T01:38:47;11.00;99.90
34095;DHT22;20372;47.080;15.410;2022-10-16T01:41:16;11.10;99.90
34095;DHT22;20372;47.080;15.410;2022-10-16T01:43:46;11.10;99.90
34095;DHT22;20372;47.080;15.410;2022-10-16T01:46:15;11.00;99.90
34095;DHT22;20372;47.080;15.410;2022-10-16T01:48:42;11.00;99.90
34095;DHT22;20372;47.080;15.410;2022-10-16T01:51:14;11.10;99.90
34095;DHT22;20372;47.080;15.410;2022-10-16T01:53:41;11.10;99.90
34095;DHT22;20372;47.080;15.410;2022-10-16T01:56:09;11.10;99.90
34095;DHT22;20372;47.080;15.410;2022-10-16T01:58:37;11.10;99.90
34095;DHT22;20372;47.080;15.410;2022-10-16T02:01:04;11.10;99.90
34095;DHT22;20372;47.080;15.410;2022-10-16T02:03:32;11.10;99.90
34095;DHT22;20372;47.080;15.410;2022-10-16T02:05:58;11.00;99.90
34095;DHT22;20372;47.080;15.410;2022-10-16T02:08:25;11.20;99.90
34095;DHT22;20372;47.080;15.410;2022-10-16T02:10:54;11.10;99.90
34095;DHT22;20372;47.080;15.410;2022-10-16T02:13:23;11.10;99.90
34095;DHT22;20372;47.080;15.410;2022-10-16T02:15:50;11.20;99.90
34095;DHT22;20372;47.080;15.410;2022-10-16T02:18:16;11.40;99.90
34095;DHT22;20372;47.080;15.410;2022-10-16T02:23:15;11.40;99.90
34095;DHT22;20372;47.080;15.410;2022-10-16T02:25:44;11.30;99.90
34095;DHT22;20372;47.080;15.410;2022-10-16T02:28:24;11.30;99.90
34095;DHT22;20372;47.080;15.410;2022-10-16T02:30:52;11.20;99.90
34095;DHT22;20372;47.080;15.410;2022-10-16T02:33:19;11.10;99.90
34095;DHT22;20372;47.080;15.410;2022-10-16T02:35:46;11.00;99.90
34095;DHT22;20372;47.080;15.410;2022-10-16T02:38:14;11.00;99.90
34095;DHT22;20372;47.080;15.410;2022-10-16T02:40:40;11.00;99.90
34095;DHT22;20372;47.080;15.410;2022-10-16T02:43:06;11.00;99.90
34095;DHT22;20372;47.080;15.410;2022-10-16T02:45:32;11.00;99.90
34095;DHT22;20372;47.080;15.410;2022-10-16T02:47:57;11.00;99.90
34095;DHT22;20372;47.080;15.410;2022-10-16T02:50:23;11.00;99.90
34095;DHT22;20372;47.080;15.410;2022-10-16T02:52:50;11.00;99.90
34095;DHT22;20372;47.080;15.410;2022-10-16T02:55:16;10.90;99.90
34095;DHT22;20372;47.080;15.410;2022-10-16T02:57:41;10.80;99.90
34095;DHT22;20372;47.080;15.410;2022-10-16T03:00:08;10.80;99.90
34095;DHT22;20372;47.080;15.410;2022-10-16T03:02:34;10.80;99.90
34095;DHT22;20372;47.080;15.410;2022-10-16T03:05:00;10.80;99.90
34095;DHT22;20372;47.080;15.410;2022-10-16T03:07:25;10.80;99.90
34095;DHT22;20372;47.080;15.410;2022-10-16T03:09:51;10.90;99.90
34095;DHT22;20372;47.080;15.410;2022-10-16T03:12:17;11.40;99.90
34095;DHT22;20372;47.080;15.410;2022-10-16T03:14:42;11.00;99.90
34095;DHT22;20372;47.080;15.410;2022-10-16T03:17:08;11.00;99.90
34095;DHT22;20372;47.080;15.410;2022-10-16T03:19:33;11.00;99.90
34095;DHT22;20372;47.080;15.410;2022-10-16T03:21:59;11.00;99.90
34095;DHT22;20372;47.080;15.410;2022-10-16T03:24:25;11.00;99.90
34095;DHT22;20372;47.080;15.410;2022-10-16T03:26:51;10.90;99.90
34095;DHT22;20372;47.080;15.410;2022-10-16T03:29:16;10.90;99.90
34095;DHT22;20372;47.080;15.410;2022-10-16T03:31:42;10.90;99.90
34095;DHT22;20372;47.080;15.410;2022-10-16T03:34:07;10.90;99.90
34095;DHT22;20372;47.080;15.410;2022-10-16T03:36:33;10.90;99.90
34095;DHT22;20372;47.080;15.410;2022-10-16T03:38:58;10.90;99.90
34095;DHT22;20372;47.080;15.410;2022-10-16T03:41:24;11.00;99.90
34095;DHT22;20372;47.080;15.410;2022-10-16T03:43:50;11.00;99.90
34095;DHT22;20372;47.080;15.410;2022-10-16T03:46:15;11.00;99.90
34095;DHT22;20372;47.080;15.410;2022-10-16T03:48:41;10.90;99.90
34095;DHT22;20372;47.080;15.410;2022-10-16T03:51:06;10.90;99.90
34095;DHT22;20372;47.080;15.410;2022-10-16T03:53:32;10.90;99.90
34095;DHT22;20372;47.080;15.410;2022-10-16T03:55:57;10.90;99.90
34095;DHT22;20372;47.080;15.410;2022-10-16T03:58:24;10.80;99.90
34095;DHT22;20372;47.080;15.410;2022-10-16T04:00:49;11.00;99.90
34095;DHT22;20372;47.080;15.410;2022-10-16T04:03:15;11.00;99.90
34095;DHT22;20372;47.080;15.410;2022-10-16T04:05:40;11.10;99.90
34095;DHT22;20372;47.080;15.410;2022-10-16T04:08:06;11.10;99.90
34095;DHT22;20372;47.080;15.410;2022-10-16T04:10:32;11.20;99.90
34095;DHT22;20372;47.080;15.410;2022-10-16T04:12:57;11.10;99.90
34095;DHT22;20372;47.080;15.410;2022-10-16T04:15:23;11.20;99.90
34095;DHT22;20372;47.080;15.410;2022-10-16T04:17:49;11.10;99.90
34095;DHT22;20372;47.080;15.410;2022-10-16T04:20:14;11.10;99.90
34095;DHT22;20372;47.080;15.410;2022-10-16T04:22:40;11.10;99.90
34095;DHT22;20372;47.080;15.410;2022-10-16T04:25:05;11.00;99.90
34095;DHT22;20372;47.080;15.410;2022-10-16T04:27:31;11.10;99.90
34095;DHT22;20372;47.080;15.410;2022-10-16T04:29:57;11.20;99.90
34095;DHT22;20372;47.080;15.410;2022-10-16T04:32:22;11.10;99.90
34095;DHT22;20372;47.080;15.410;2022-10-16T04:34:48;11.10;99.90
34095;DHT22;20372;47.080;15.410;2022-10-16T04:37:14;11.10;99.90
34095;DHT22;20372;47.080;15.410;2022-10-16T04:39:39;11.10;99.90
34095;DHT22;20372;47.080;15.410;2022-10-16T04:42:05;11.10;99.90
34095;DHT22;20372;47.080;15.410;2022-10-16T04:44:30;11.00;99.90
34095;DHT22;20372;47.080;15.410;2022-10-16T04:46:56;11.10;99.90
34095;DHT22;20372;47.080;15.410;2022-10-16T04:49:22;11.10;99.90
34095;DHT22;20372;47.080;15.410;2022-10-16T04:51:47;11.00;99.90
34095;DHT22;20372;47.080;15.410;2022-10-16T04:54:13;11.10;99.90
34095;DHT22;20372;47.080;15.410;2022-10-16T04:56:38;11.00;99.90
34095;DHT22;20372;47.080;15.410;2022-10-16T04:59:13;11.00;99.90
34095;DHT22;20372;47.080;15.410;2022-10-16T05:01:39;11.10;99.90
34095;DHT22;20372;47.080;15.410;2022-10-16T05:04:05;11.00;99.90
34095;DHT22;20372;47.080;15.410;2022-10-16T05:06:31;10.90;99.90
34095;DHT22;20372;47.080;15.410;2022-10-16T05:08:56;11.00;99.90
34095;DHT22;20372;47.080;15.410;2022-10-16T05:11:22;11.00;99.90
34095;DHT22;20372;47.080;15.410;2022-10-16T05:13:47;11.10;99.90
34095;DHT22;20372;47.080;15.410;2022-10-16T05:16:13;11.10;99.90
34095;DHT22;20372;47.080;15.410;2022-10-16T05:18:39;11.10;99.90
34095;DHT22;20372;47.080;15.410;2022-10-16T05:21:04;11.10;99.90
34095;DHT22;20372;47.080;15.410;2022-10-16T05:23:31;11.10;99.90
34095;DHT22;20372;47.080;15.410;2022-10-16T05:25:57;11.10;99.90
34095;DHT22;20372;47.080;15.410;2022-10-16T05:28:24;11.10;99.90
34095;DHT22;20372;47.080;15.410;2022-10-16T05:30:49;11.20;99.90
34095;DHT22;20372;47.080;15.410;2022-10-16T05:33:15;11.20;99.90
34095;DHT22;20372;47.080;15.410;2022-10-16T05:35:41;11.20;99.90
34095;DHT22;20372;47.080;15.410;2022-10-16T05:38:06;11.10;99.90
34095;DHT22;20372;47.080;15.410;2022-10-16T05:40:32;11.20;99.90
34095;DHT22;20372;47.080;15.410;2022-10-16T05:42:57;11.20;99.90
34095;DHT22;20372;47.080;15.410;2022-10-16T05:45:23;11.10;99.90
34095;DHT22;20372;47.080;15.410;2022-10-16T05:47:48;11.10;99.90
34095;DHT22;20372;47.080;15.410;2022-10-16T05:50:14;11.10;99.90
34095;DHT22;20372;47.080;15.410;2022-10-16T05:52:39;11.00;99.90
34095;DHT22;20372;47.080;15.410;2022-10-16T05:55:05;11.10;99.90
34095;DHT22;20372;47.080;15.410;2022-10-16T05:57:31;11.20;99.90
34095;DHT22;20372;47.080;15.410;2022-10-16T05:59:56;11.20;99.90
34095;DHT22;20372;47.080;15.410;2022-10-16T06:02:22;11.10;99.90
34095;DHT22;20372;47.080;15.410;2022-10-16T06:04:47;11.10;99.90
34095;DHT22;20372;47.080;15.410;2022-10-16T06:07:13;11.00;99.90
34095;DHT22;20372;47.080;15.410;2022-10-16T06:09:39;11.00;99.90
34095;DHT22;20372;47.080;15.410;2022-10-16T06:12:04;11.10;99.90
34095;DHT22;20372;47.080;15.410;2022-10-16T06:14:30;11.10;99.90
34095;DHT22;20372;47.080;15.410;2022-10-16T06:16:55;11.10;99.90
34095;DHT22;20372;47.080;15.410;2022-10-16T06:19:21;11.00;99.90
34095;DHT22;20372;47.080;15.410;2022-10-16T06:21:48;11.10;99.90
34095;DHT22;20372;47.080;15.410;2022-10-16T06:24:13;11.20;99.90
34095;DHT22;20372;47.080;15.410;2022-10-16T06:26:39;11.30;99.90
34095;DHT22;20372;47.080;15.410;2022-10-16T06:29:05;11.30;99.90
34095;DHT22;20372;47.080;15.410;2022-10-16T06:31:30;11.40;99.90
34095;DHT22;20372;47.080;15.410;2022-10-16T06:33:58;11.50;99.90
34095;DHT22;20372;47.080;15.410;2022-10-16T06:36:24;11.60;99.90
34095;DHT22;20372;47.080;15.410;2022-10-16T06:38:50;11.80;99.90
34095;DHT22;20372;47.080;15.410;2022-10-16T06:41:16;11.90;99.90
34095;DHT22;20372;47.080;15.410;2022-10-16T06:43:43;12.00;99.90
34095;DHT22;20372;47.080;15.410;2022-10-16T06:46:10;12.20;99.90
34095;DHT22;20372;47.080;15.410;2022-10-16T06:48:36;12.50;99.90
34095;DHT22;20372;47.080;15.410;2022-10-16T06:53:28;13.50;99.90
34095;DHT22;20372;47.080;15.410;2022-10-16T06:55:54;14.10;99.90
34095;DHT22;20372;47.080;15.410;2022-10-16T06:58:20;14.60;99.90
34095;DHT22;20372;47.080;15.410;2022-10-16T07:00:45;14.90;99.90
34095;DHT22;20372;47.080;15.410;2022-10-16T07:03:11;15.20;99.90
34095;DHT22;20372;47.080;15.410;2022-10-16T07:05:39;15.30;99.90
34095;DHT22;20372;47.080;15.410;2022-10-16T07:08:05;15.40;99.90
34095;DHT22;20372;47.080;15.410;2022-10-16T07:10:31;16.30;99.90
34095;DHT22;20372;47.080;15.410;2022-10-16T07:12:57;16.40;99.90
34095;DHT22;20372;47.080;15.410;2022-10-16T07:15:24;16.10;99.90
34095;DHT22;20372;47.080;15.410;2022-10-16T07:17:49;16.10;99.90
34095;DHT22;20372;47.080;15.410;2022-10-16T07:20:15;16.10;99.90
34095;DHT22;20372;47.080;15.410;2022-10-16T07:22:41;16.30;99.90
34095;DHT22;20372;47.080;15.410;2022-10-16T07:25:06;16.30;99.90
34095;DHT22;20372;47.080;15.410;2022-10-16T07:27:32;16.60;99.90
34095;DHT22;20372;47.080;15.410;2022-10-16T07:29:59;16.60;99.90
34095;DHT22;20372;47.080;15.410;2022-10-16T07:32:24;16.80;99.90
34095;DHT22;20372;47.080;15.410;2022-10-16T07:34:51;16.90;99.90
34095;DHT22;20372;47.080;15.410;2022-10-16T07:37:16;17.20;99.90
34095;DHT22;20372;47.080;15.410;2022-10-16T07:39:42;17.10;99.90
34095;DHT22;20372;47.080;15.410;2022-10-16T07:42:08;17.20;99.90
34095;DHT22;20372;47.080;15.410;2022-10-16T07:44:34;17.20;99.90
34095;DHT22;20372;47.080;15.410;2022-10-16T07:46:59;17.40;99.90
34095;DHT22;20372;47.080;15.410;2022-10-16T07:49:25;17.60;99.90
34095;DHT22;20372;47.080;15.410;2022-10-16T07:51:51;17.50;99.90
34095;DHT22;20372;47.080;15.410;2022-10-16T07:54:16;18.00;99.90
34095;DHT22;20372;47.080;15.410;2022-10-16T07:56:42;18.60;99.90
34095;DHT22;20372;47.080;15.410;2022-10-16T07:59:07;19.50;99.90
34095;DHT22;20372;47.080;15.410;2022-10-16T08:01:33;19.80;99.90
34095;DHT22;20372;47.080;15.410;2022-10-16T08:03:59;19.80;99.90
34095;DHT22;20372;47.080;15.410;2022-10-16T08:06:24;19.70;99.90
34095;DHT22;20372;47.080;15.410;2022-10-16T08:08:50;20.30;99.90
34095;DHT22;20372;47.080;15.410;2022-10-16T08:11:15;20.30;99.90
34095;DHT22;20372;47.080;15.410;2022-10-16T08:13:41;20.10;99.90
34095;DHT22;20372;47.080;15.410;2022-10-16T08:16:07;19.10;99.90
34095;DHT22;20372;47.080;15.410;2022-10-16T08:18:34;18.60;99.90
34095;DHT22;20372;47.080;15.410;2022-10-16T08:21:00;18.40;99.90
34095;DHT22;20372;47.080;15.410;2022-10-16T08:23:27;18.60;99.90
34095;DHT22;20372;47.080;15.410;2022-10-16T08:25:53;20.10;99.90
34095;DHT22;20372;47.080;15.410;2022-10-16T08:28:19;20.50;99.90
34095;DHT22;20372;47.080;15.410;2022-10-16T08:30:45;19.90;99.90
34095;DHT22;20372;47.080;15.410;2022-10-16T08:33:11;19.60;99.90
34095;DHT22;20372;47.080;15.410;2022-10-16T08:35:36;19.40;99.90
34095;DHT22;20372;47.080;15.410;2022-10-16T08:38:05;20.50;99.90
34095;DHT22;20372;47.080;15.410;2022-10-16T08:40:31;21.00;99.90
34095;DHT22;20372;47.080;15.410;2022-10-16T08:50:36;21.90;99.90
34095;DHT22;20372;47.080;15.410;2022-10-16T08:53:03;21.40;99.90
34095;DHT22;20372;47.080;15.410;2022-10-16T08:55:30;20.30;99.90
34095;DHT22;20372;47.080;15.410;2022-10-16T08:57:56;19.60;99.90
34095;DHT22;20372;47.080;15.410;2022-10-16T09:00:21;19.40;99.90
34095;DHT22;20372;47.080;15.410;2022-10-16T09:08:14;19.10;99.90
34095;DHT22;20372;47.080;15.410;2022-10-16T09:16:24;19.10;99.90
34095;DHT22;20372;47.080;15.410;2022-10-16T09:21:31;19.10;99.90
34095;DHT22;20372;47.080;15.410;2022-10-16T09:24:14;18.60;99.90
34095;DHT22;20372;47.080;15.410;2022-10-16T09:26:40;18.20;99.90
34095;DHT22;20372;47.080;15.410;2022-10-16T09:29:08;18.40;99.90
34095;DHT22;20372;47.080;15.410;2022-10-16T09:31:35;18.80;99.90
34095;DHT22;20372;47.080;15.410;2022-10-16T09:34:02;19.20;99.90
34095;DHT22;20372;47.080;15.410;2022-10-16T09:36:42;19.30;99.90
34095;DHT22;20372;47.080;15.410;2022-10-16T09:39:09;18.80;99.90
34095;DHT22;20372;47.080;15.410;2022-10-16T09:41:38;18.50;99.90
34095;DHT22;20372;47.080;15.410;2022-10-16T09:44:06;18.20;99.90
34095;DHT22;20372;47.080;15.410;2022-10-16T09:46:38;18.40;99.90
34095;DHT22;20372;47.080;15.410;2022-10-16T09:49:17;18.70;99.90
34095;DHT22;20372;47.080;15.410;2022-10-16T09:51:44;18.80;99.90
34095;DHT22;20372;47.080;15.410;2022-10-16T09:56:36;19.10;99.90
34095;DHT22;20372;47.080;15.410;2022-10-16T09:59:14;19.50;99.90
34095;DHT22;20372;47.080;15.410;2022-10-16T10:01:40;19.40;99.90
34095;DHT22;20372;47.080;15.410;2022-10-16T10:04:07;19.50;99.90
34095;DHT22;20372;47.080;15.410;2022-10-16T10:06:36;19.30;99.90
34095;DHT22;20372;47.080;15.410;2022-10-16T10:14:32;19.00;99.90
34095;DHT22;20372;47.080;15.410;2022-10-16T10:19:36;19.60;99.90
34095;DHT22;20372;47.080;15.410;2022-10-16T10:22:12;19.40;99.90
34095;DHT22;20372;47.080;15.410;2022-10-16T10:24:38;19.50;99.90
34095;DHT22;20372;47.080;15.410;2022-10-16T10:27:06;19.70;99.90
34095;DHT22;20372;47.080;15.410;2022-10-16T10:29:47;19.70;99.90
34095;DHT22;20372;47.080;15.410;2022-10-16T10:35:06;20.10;99.90
34095;DHT22;20372;47.080;15.410;2022-10-16T10:37:40;20.20;99.90
34095;DHT22;20372;47.080;15.410;2022-10-16T10:42:51;20.50;99.90
34095;DHT22;20372;47.080;15.410;2022-10-16T10:45:26;20.40;99.90
34095;DHT22;20372;47.080;15.410;2022-10-16T10:53:00;20.40;99.90
34095;DHT22;20372;47.080;15.410;2022-10-16T10:55:36;20.30;99.90
34095;DHT22;20372;47.080;15.410;2022-10-16T11:10:38;20.80;99.90
34095;DHT22;20372;47.080;15.410;2022-10-16T11:13:11;20.80;99.90
34095;DHT22;20372;47.080;15.410;2022-10-16T11:15:39;20.90;99.90
34095;DHT22;20372;47.080;15.410;2022-10-16T11:18:08;21.00;99.90
34095;DHT22;20372;47.080;15.410;2022-10-16T11:20:42;20.90;99.90
34095;DHT22;20372;47.080;15.410;2022-10-16T11:23:16;21.00;99.90
34095;DHT22;20372;47.080;15.410;2022-10-16T11:25:43;21.10;99.90
34095;DHT22;20372;47.080;15.410;2022-10-16T11:30:49;21.10;99.90
34095;DHT22;20372;47.080;15.410;2022-10-16T11:35:47;21.00;99.90
34095;DHT22;20372;47.080;15.410;2022-10-16T11:41:44;21.30;99.90
34095;DHT22;20372;47.080;15.410;2022-10-16T11:43:46;21.10;98.90
34095;DHT22;20372;47.080;15.410;2022-10-16T11:46:19;21.10;99.60
34095;DHT22;20372;47.080;15.410;2022-10-16T11:48:50;21.10;98.70
34095;DHT22;20372;47.080;15.410;2022-10-16T11:51:31;21.10;98.80
34095;DHT22;20372;47.080;15.410;2022-10-16T11:56:24;21.20;98.60
34095;DHT22;20372;47.080;15.410;2022-10-16T12:01:17;21.30;97.60
34095;DHT22;20372;47.080;15.410;2022-10-16T12:08:54;21.40;98.60
34095;DHT22;20372;47.080;15.410;2022-10-16T12:19:21;21.60;96.80
34095;DHT22;20372;47.080;15.410;2022-10-16T12:21:47;21.50;96.50
34095;DHT22;20372;47.080;15.410;2022-10-16T12:24:21;21.50;97.90
34095;DHT22;20372;47.080;15.410;2022-10-16T12:26:46;21.60;97.00
34095;DHT22;20372;47.080;15.410;2022-10-16T12:29:19;21.70;96.70
34095;DHT22;20372;47.080;15.410;2022-10-16T12:31:47;21.90;96.20
34095;DHT22;20372;47.080;15.410;2022-10-16T12:34:16;21.80;97.30
34095;DHT22;20372;47.080;15.410;2022-10-16T12:36:46;21.70;96.00
34095;DHT22;20372;47.080;15.410;2022-10-16T12:39:20;21.80;95.50
34095;DHT22;20372;47.080;15.410;2022-10-16T12:41:46;21.70;94.90
34095;DHT22;20372;47.080;15.410;2022-10-16T12:44:22;21.70;95.60
34095;DHT22;20372;47.080;15.410;2022-10-16T12:46:48;21.70;93.70
34095;DHT22;20372;47.080;15.410;2022-10-16T12:49:21;21.80;95.10
34095;DHT22;20372;47.080;15.410;2022-10-16T12:51:47;22.00;94.90
34095;DHT22;20372;47.080;15.410;2022-10-16T12:54:17;22.00;94.40
34095;DHT22;20372;47.080;15.410;2022-10-16T13:02:01;22.10;95.20
34095;DHT22;20372;47.080;15.410;2022-10-16T13:12:05;21.90;96.20
34095;DHT22;20372;47.080;15.410;2022-10-16T13:17:23;21.90;96.50
34095;DHT22;20372;47.080;15.410;2022-10-16T13:22:35;22.10;97.20
34095;DHT22;20372;47.080;15.410;2022-10-16T13:28:04;22.10;97.70
34095;DHT22;20372;47.080;15.410;2022-10-16T13:30:31;22.00;96.60
34095;DHT22;20372;47.080;15.410;2022-10-16T13:33:12;22.20;96.70
34095;DHT22;20372;47.080;15.410;2022-10-16T13:35:45;22.10;95.90
34095;DHT22;20372;47.080;15.410;2022-10-16T13:38:13;22.20;96.60
34095;DHT22;20372;47.080;15.410;2022-10-16T13:40:49;22.10;96.70
34095;DHT22;20372;47.080;15.410;2022-10-16T13:43:16;22.10;97.00
34095;DHT22;20372;47.080;15.410;2022-10-16T13:45:51;22.00;97.30
34095;DHT22;20372;47.080;15.410;2022-10-16T13:48:17;22.00;97.00
34095;DHT22;20372;47.080;15.410;2022-10-16T13:50:43;21.90;96.70
34095;DHT22;20372;47.080;15.410;2022-10-16T13:53:12;21.80;96.30
34095;DHT22;20372;47.080;15.410;2022-10-16T13:55:39;21.90;96.20
34095;DHT22;20372;47.080;15.410;2022-10-16T13:58:08;21.90;96.90
34095;DHT22;20372;47.080;15.410;2022-10-16T14:00:36;22.10;96.90
34095;DHT22;20372;47.080;15.410;2022-10-16T14:03:03;22.20;96.90
34095;DHT22;20372;47.080;15.410;2022-10-16T14:05:29;22.10;96.50
34095;DHT22;20372;47.080;15.410;2022-10-16T14:07:55;22.10;97.20
34095;DHT22;20372;47.080;15.410;2022-10-16T14:10:31;21.90;97.10
34095;DHT22;20372;47.080;15.410;2022-10-16T14:13:02;22.00;96.80
34095;DHT22;20372;47.080;15.410;2022-10-16T14:15:29;21.80;97.20
34095;DHT22;20372;47.080;15.410;2022-10-16T14:17:55;21.80;96.80
34095;DHT22;20372;47.080;15.410;2022-10-16T14:20:23;21.90;96.60
34095;DHT22;20372;47.080;15.410;2022-10-16T14:22:57;21.80;97.60
34095;DHT22;20372;47.080;15.410;2022-10-16T14:25:24;21.90;97.00
34095;DHT22;20372;47.080;15.410;2022-10-16T14:30:24;22.20;96.80
34095;DHT22;20372;47.080;15.410;2022-10-16T14:33:02;22.30;96.40
34095;DHT22;20372;47.080;15.410;2022-10-16T14:35:31;22.20;96.80
34095;DHT22;20372;47.080;15.410;2022-10-16T14:37:57;22.00;97.90
34095;DHT22;20372;47.080;15.410;2022-10-16T14:40:24;22.00;97.90
34095;DHT22;20372;47.080;15.410;2022-10-16T14:42:50;21.80;97.40
34095;DHT22;20372;47.080;15.410;2022-10-16T14:45:20;21.70;97.40
34095;DHT22;20372;47.080;15.410;2022-10-16T14:47:56;21.60;97.70
34095;DHT22;20372;47.080;15.410;2022-10-16T14:50:22;21.50;97.60
34095;DHT22;20372;47.080;15.410;2022-10-16T14:52:48;21.30;97.70
34095;DHT22;20372;47.080;15.410;2022-10-16T14:55:14;21.30;97.60
34095;DHT22;20372;47.080;15.410;2022-10-16T14:57:40;21.30;98.10
34095;DHT22;20372;47.080;15.410;2022-10-16T15:00:09;21.10;99.00
34095;DHT22;20372;47.080;15.410;2022-10-16T15:02:35;21.00;98.80
34095;DHT22;20372;47.080;15.410;2022-10-16T15:05:07;20.90;98.70
34095;DHT22;20372;47.080;15.410;2022-10-16T15:07:35;20.90;98.20
34095;DHT22;20372;47.080;15.410;2022-10-16T15:10:01;21.00;98.30
34095;DHT22;20372;47.080;15.410;2022-10-16T15:12:26;20.90;99.20
34095;DHT22;20372;47.080;15.410;2022-10-16T15:14:52;20.60;99.80
34095;DHT22;20372;47.080;15.410;2022-10-16T15:17:18;20.50;99.90
34095;DHT22;20372;47.080;15.410;2022-10-16T15:19:43;20.40;99.90
34095;DHT22;20372;47.080;15.410;2022-10-16T15:22:10;20.40;99.90
34095;DHT22;20372;47.080;15.410;2022-10-16T15:24:36;20.20;99.90
34095;DHT22;20372;47.080;15.410;2022-10-16T15:27:02;20.10;99.90
34095;DHT22;20372;47.080;15.410;2022-10-16T15:29:27;19.80;99.90
34095;DHT22;20372;47.080;15.410;2022-10-16T15:31:53;19.60;99.90
34095;DHT22;20372;47.080;15.410;2022-10-16T15:34:18;19.40;99.90
34095;DHT22;20372;47.080;15.410;2022-10-16T15:36:44;19.20;99.90
34095;DHT22;20372;47.080;15.410;2022-10-16T15:39:14;19.20;99.90
34095;DHT22;20372;47.080;15.410;2022-10-16T15:41:40;19.10;99.90
34095;DHT22;20372;47.080;15.410;2022-10-16T15:44:06;19.00;99.90
34095;DHT22;20372;47.080;15.410;2022-10-16T15:46:32;18.90;99.90
34095;DHT22;20372;47.080;15.410;2022-10-16T15:48:59;18.80;99.90
34095;DHT22;20372;47.080;15.410;2022-10-16T15:51:25;18.60;99.90
34095;DHT22;20372;47.080;15.410;2022-10-16T15:53:58;18.50;99.90
34095;DHT22;20372;47.080;15.410;2022-10-16T15:56:24;18.40;99.90
34095;DHT22;20372;47.080;15.410;2022-10-16T15:58:53;18.30;99.90
34095;DHT22;20372;47.080;15.410;2022-10-16T16:01:19;18.20;99.90
34095;DHT22;20372;47.080;15.410;2022-10-16T16:03:45;18.10;99.90
34095;DHT22;20372;47.080;15.410;2022-10-16T16:06:11;18.00;99.90
34095;DHT22;20372;47.080;15.410;2022-10-16T16:08:37;17.90;99.90
34095;DHT22;20372;47.080;15.410;2022-10-16T16:11:10;17.90;99.90
34095;DHT22;20372;47.080;15.410;2022-10-16T16:13:36;17.70;99.90
34095;DHT22;20372;47.080;15.410;2022-10-16T16:16:10;17.70;99.90
34095;DHT22;20372;47.080;15.410;2022-10-16T16:18:36;17.60;99.90
34095;DHT22;20372;47.080;15.410;2022-10-16T16:21:02;17.50;99.90
34095;DHT22;20372;47.080;15.410;2022-10-16T16:23:28;17.40;99.90
34095;DHT22;20372;47.080;15.410;2022-10-16T16:28:28;17.20;99.90
34095;DHT22;20372;47.080;15.410;2022-10-16T16:30:53;17.10;99.90
34095;DHT22;20372;47.080;15.410;2022-10-16T16:33:19;17.00;99.90
34095;DHT22;20372;47.080;15.410;2022-10-16T16:35:44;17.00;99.90
34095;DHT22;20372;47.080;15.410;2022-10-16T16:38:10;16.90;99.90
34095;DHT22;20372;47.080;15.410;2022-10-16T16:40:36;16.90;99.90
34095;DHT22;20372;47.080;15.410;2022-10-16T16:43:01;16.80;99.90
34095;DHT22;20372;47.080;15.410;2022-10-16T16:45:27;16.70;99.90
34095;DHT22;20372;47.080;15.410;2022-10-16T16:47:53;16.60;99.90
34095;DHT22;20372;47.080;15.410;2022-10-16T16:50:19;16.50;99.90
34095;DHT22;20372;47.080;15.410;2022-10-16T16:52:44;16.40;99.90
34095;DHT22;20372;47.080;15.410;2022-10-16T16:55:10;16.30;99.90
34095;DHT22;20372;47.080;15.410;2022-10-16T16:57:36;16.30;99.90
34095;DHT22;20372;47.080;15.410;2022-10-16T17:00:02;16.20;99.90
34095;DHT22;20372;47.080;15.410;2022-10-16T17:02:28;16.30;99.90
34095;DHT22;20372;47.080;15.410;2022-10-16T17:04:54;16.20;99.90
34095;DHT22;20372;47.080;15.410;2022-10-16T17:07:22;16.10;99.90
34095;DHT22;20372;47.080;15.410;2022-10-16T17:09:47;16.00;99.90
34095;DHT22;20372;47.080;15.410;2022-10-16T17:12:13;16.00;99.90
34095;DHT22;20372;47.080;15.410;2022-10-16T17:14:38;16.00;99.90